Time;durP1;ratioP1;P1;durP2;ratioP2;P2;SDS_P1;SDS_P2;PMS_P1;PMS_P2;Temp;Humidity;BMP_temperature;BMP_pressure;BME280_temperature;BME280_humidity;BME280_pressure;Samples;Min_cycle;Max_cycle;Signal;HPM_P1;HPM_P2
2023/08/08 00:00:45;;;;;;;3.15;1.90;;;;;14.90;98666.00;;;;5071804;28;20048;-63
2023/08/08 00:03:12;;;;;;;3.58;1.85;;;;;14.90;98671.00;;;;5071700;28;20041;-64
2023/08/08 00:05:39;;;;;;;5.45;2.40;;;;;14.90;98671.00;;;;5072107;28;20115;-63
2023/08/08 00:08:06;;;;;;;4.13;2.10;;;;;14.70;98670.00;;;;5071714;28;20580;-63
2023/08/08 00:10:32;;;;;;;3.58;2.10;;;;;14.60;98668.00;;;;5053599;28;20056;-63
2023/08/08 00:12:59;;;;;;;2.97;2.28;;;;;14.50;98662.00;;;;5053701;28;20059;-63
2023/08/08 00:15:26;;;;;;;5.30;2.10;;;;;14.50;98659.00;;;;5074316;28;20044;-64
2023/08/08 00:17:52;;;;;;;3.05;2.63;;;;;14.60;98658.00;;;;5074070;28;20051;-63
2023/08/08 00:20:19;;;;;;;3.50;1.88;;;;;14.70;98656.00;;;;5036989;28;20490;-63
2023/08/08 00:22:45;;;;;;;2.72;2.10;;;;;14.60;98658.00;;;;5053648;28;20055;-63
2023/08/08 00:25:12;;;;;;;2.97;2.08;;;;;14.60;98658.00;;;;5071607;28;20043;-63
2023/08/08 00:27:42;;;;;;;3.90;2.33;;;;;14.60;98655.00;;;;5071585;28;20064;-63
2023/08/08 00:30:12;;;;;;;2.67;2.10;;;;;14.60;98657.00;;;;5071437;28;20060;-64
2023/08/08 00:32:39;;;;;;;3.53;2.28;;;;;14.60;98654.00;;;;5071435;28;20036;-63
2023/08/08 00:35:06;;;;;;;4.00;2.03;;;;;14.50;98656.00;;;;5071326;28;20073;-63
2023/08/08 00:37:32;;;;;;;3.80;2.25;;;;;14.40;98666.00;;;;5071545;28;20040;-63
2023/08/08 00:39:59;;;;;;;2.30;2.10;;;;;14.40;98662.00;;;;5053335;28;20044;-63
2023/08/08 00:42:26;;;;;;;2.85;1.70;;;;;14.30;98658.00;;;;5053452;28;20102;-63
2023/08/08 00:44:53;;;;;;;3.75;1.85;;;;;14.20;98656.00;;;;5072773;28;20527;-63
2023/08/08 00:47:19;;;;;;;2.22;1.85;;;;;14.10;98651.00;;;;5057061;28;20497;-63
2023/08/08 00:49:48;;;;;;;2.13;1.90;;;;;14.20;98661.00;;;;5056931;28;20064;-63
2023/08/08 00:52:15;;;;;;;6.03;2.03;;;;;14.20;98652.00;;;;5057227;28;20094;-63
2023/08/08 00:54:41;;;;;;;3.65;1.90;;;;;14.20;98656.00;;;;5056873;28;20054;-63
2023/08/08 00:57:08;;;;;;;1.98;1.70;;;;;14.20;98646.00;;;;5056915;28;20068;-64
2023/08/08 00:59:35;;;;;;;3.10;2.40;;;;;14.20;98650.00;;;;5056896;28;20154;-63
2023/08/08 01:02:01;;;;;;;3.35;2.30;;;;;14.30;98649.00;;;;5074889;28;20057;-64
2023/08/08 01:04:28;;;;;;;2.67;2.10;;;;;14.30;98645.00;;;;5056757;28;20114;-64
2023/08/08 01:07:25;;;;;;;4.72;2.03;;;;;14.10;98649.00;;;;5057154;28;20075;-63
2023/08/08 01:09:54;;;;;;;5.63;1.67;;;;;14.00;98643.00;;;;5056733;28;20283;-63
2023/08/08 01:12:23;;;;;;;5.53;2.20;;;;;14.00;98637.00;;;;5074573;28;20044;-63
2023/08/08 01:14:51;;;;;;;4.40;2.42;;;;;14.00;98633.00;;;;5056592;28;20053;-63
2023/08/08 01:17:18;;;;;;;2.92;1.83;;;;;14.00;98642.00;;;;5074414;28;20105;-63
2023/08/08 01:19:45;;;;;;;7.75;2.00;;;;;14.10;98640.00;;;;5039886;28;20053;-63
2023/08/08 01:22:20;;;;;;;4.75;2.00;;;;;14.00;98637.00;;;;5074573;28;20044;-64
2023/08/08 01:24:47;;;;;;;3.25;1.90;;;;;13.90;98640.00;;;;5056355;28;20044;-63
2023/08/08 01:27:14;;;;;;;2.80;1.80;;;;;13.90;98630.00;;;;5056665;28;20043;-63
2023/08/08 01:29:42;;;;;;;2.38;1.80;;;;;13.90;98635.00;;;;5073942;28;20249;-63
2023/08/08 01:32:10;;;;;;;3.70;2.00;;;;;13.90;98634.00;;;;5056481;28;20047;-63
2023/08/08 01:34:37;;;;;;;3.20;2.00;;;;;13.90;98627.00;;;;5074258;28;20527;-63
2023/08/08 01:37:17;;;;;;;4.75;2.10;;;;;13.80;98622.00;;;;5073925;28;20473;-63
2023/08/08 01:39:45;;;;;;;3.55;2.20;;;;;13.70;98626.00;;;;5055950;28;20572;-63
2023/08/08 01:42:14;;;;;;;3.80;1.67;;;;;13.60;98631.00;;;;5074021;28;20154;-63
2023/08/08 01:44:44;;;;;;;3.30;2.30;;;;;13.60;98638.00;;;;5056001;28;20195;-63
2023/08/08 01:47:11;;;;;;;3.38;2.13;;;;;13.60;98641.00;;;;5074292;28;20098;-63
2023/08/08 01:49:37;;;;;;;2.33;2.13;;;;;13.60;98643.00;;;;5055415;28;20049;-63
2023/08/08 01:52:05;;;;;;;4.57;2.38;;;;;13.60;98632.00;;;;5073807;28;20072;-63
2023/08/08 01:54:31;;;;;;;4.22;1.90;;;;;13.70;98633.00;;;;5073819;28;20115;-63
2023/08/08 01:56:58;;;;;;;2.78;1.58;;;;;13.70;98636.00;;;;5072257;28;20037;-63
2023/08/08 01:59:25;;;;;;;3.35;2.28;;;;;13.70;98633.00;;;;5073046;28;20115;-63
2023/08/08 02:01:51;;;;;;;3.42;2.03;;;;;13.80;98633.00;;;;5055618;28;20147;-63
2023/08/08 02:04:18;;;;;;;5.03;2.40;;;;;13.80;98635.00;;;;5055641;28;20048;-63
2023/08/08 02:06:44;;;;;;;2.75;1.80;;;;;13.70;98633.00;;;;5073650;28;20056;-63
2023/08/08 02:09:14;;;;;;;2.70;1.90;;;;;13.60;98630.00;;;;5055512;28;20151;-63
2023/08/08 02:11:41;;;;;;;4.10;1.90;;;;;13.60;98629.00;;;;5073741;28;20505;-63
2023/08/08 02:14:08;;;;;;;1.98;1.58;;;;;13.70;98629.00;;;;5056618;28;20144;-63
2023/08/08 02:16:34;;;;;;;5.07;2.50;;;;;13.70;98635.00;;;;5039255;28;20396;-63
2023/08/08 02:19:01;;;;;;;4.18;2.00;;;;;13.80;98630.00;;;;5074307;28;20044;-63
2023/08/08 02:21:28;;;;;;;1.60;1.40;;;;;14.00;98637.00;;;;5073595;28;20632;-64
2023/08/08 02:23:54;;;;;;;2.30;2.05;;;;;14.00;98634.00;;;;5055394;28;20049;-63
2023/08/08 02:26:21;;;;;;;2.22;1.70;;;;;14.00;98639.00;;;;5055275;28;20560;-63
2023/08/08 02:28:47;;;;;;;3.65;1.90;;;;;14.00;98633.00;;;;5073202;28;20048;-63
2023/08/08 02:31:20;;;;;;;3.70;1.50;;;;;14.00;98626.00;;;;5073036;28;20036;-63
2023/08/08 02:33:50;;;;;;;4.25;1.85;;;;;14.10;98627.00;;;;5055336;28;20053;-63
2023/08/08 02:36:18;;;;;;;2.97;1.92;;;;;14.10;98630.00;;;;5039500;28;20098;-63
2023/08/08 02:38:45;;;;;;;2.83;1.90;;;;;14.10;98622.00;;;;5055873;28;20040;-63
2023/08/08 02:41:12;;;;;;;3.10;1.60;;;;;14.00;98626.00;;;;5073062;28;20123;-64
2023/08/08 02:43:38;;;;;;;1.77;1.40;;;;;13.80;98617.00;;;;5055483;28;20508;-63
2023/08/08 02:46:05;;;;;;;3.00;1.90;;;;;13.80;98614.00;;;;5055482;28;20040;-63
2023/08/08 02:48:32;;;;;;;3.85;2.03;;;;;13.80;98614.00;;;;5038748;28;20124;-63
2023/08/08 02:50:59;;;;;;;1.67;1.48;;;;;13.80;98615.00;;;;5056258;28;20044;-63
2023/08/08 02:53:26;;;;;;;5.88;1.98;;;;;13.60;98610.00;;;;5057504;28;20135;-63
2023/08/08 02:55:53;;;;;;;2.00;1.67;;;;;13.60;98619.00;;;;5054717;28;20033;-63
2023/08/08 02:58:20;;;;;;;4.18;2.08;;;;;13.60;98613.00;;;;5073224;28;20049;-62
2023/08/08 03:00:46;;;;;;;3.58;2.00;;;;;13.70;98620.00;;;;5074202;28;20044;-63
2023/08/08 03:03:15;;;;;;;6.03;1.92;;;;;13.80;98620.00;;;;5071132;28;20049;-63
2023/08/08 03:05:45;;;;;;;3.50;2.00;;;;;13.80;98616.00;;;;5056941;28;20063;-63
2023/08/08 03:08:15;;;;;;;3.55;1.90;;;;;13.70;98611.00;;;;5070182;28;20079;-63
2023/08/08 03:10:42;;;;;;;4.00;2.40;;;;;13.70;98614.00;;;;5054609;28;20116;-63
2023/08/08 03:13:10;;;;;;;5.40;3.10;;;;;13.60;98612.00;;;;5075915;28;20041;-63
2023/08/08 03:15:38;;;;;;;3.20;2.22;;;;;13.70;98613.00;;;;5077561;28;20044;-63
2023/08/08 03:18:06;;;;;;;4.28;2.35;;;;;13.70;98620.00;;;;5076922;28;20024;-63
2023/08/08 03:20:33;;;;;;;5.63;2.10;;;;;13.60;98615.00;;;;5076079;28;20029;-63
2023/08/08 03:23:01;;;;;;;5.40;2.38;;;;;13.40;98604.00;;;;5076304;28;20050;-63
2023/08/08 03:25:28;;;;;;;5.95;3.08;;;;;13.30;98608.00;;;;5071569;28;20045;-63
2023/08/08 03:27:55;;;;;;;2.53;2.10;;;;;13.20;98608.00;;;;5088870;28;20056;-64
2023/08/08 03:30:22;;;;;;;4.57;2.95;;;;;13.20;98607.00;;;;5055716;28;20049;-63
2023/08/08 03:32:48;;;;;;;3.13;2.33;;;;;13.30;98600.00;;;;5071459;28;20148;-63
2023/08/08 03:35:15;;;;;;;4.85;2.22;;;;;13.40;98605.00;;;;5088417;28;20157;-63
2023/08/08 03:37:43;;;;;;;5.03;2.47;;;;;13.40;98602.00;;;;5068129;28;20041;-63
2023/08/08 03:40:13;;;;;;;3.72;2.40;;;;;13.40;98588.00;;;;5061408;28;20052;-63
2023/08/08 03:42:40;;;;;;;3.72;2.47;;;;;13.40;98597.00;;;;5063162;28;20120;-63
2023/08/08 03:45:08;;;;;;;2.83;2.00;;;;;13.40;98598.00;;;;5069516;28;20044;-63
2023/08/08 03:47:34;;;;;;;5.05;3.00;;;;;13.30;98598.00;;;;5069422;28;20112;-64
2023/08/08 03:50:01;;;;;;;3.45;2.20;;;;;13.30;98593.00;;;;5070619;28;20048;-64
2023/08/08 03:52:28;;;;;;;4.63;2.38;;;;;13.20;98600.00;;;;5070805;28;20082;-63
2023/08/08 03:54:56;;;;;;;4.53;2.17;;;;;13.20;98594.00;;;;5071169;28;20095;-63
2023/08/08 03:57:23;;;;;;;3.25;2.15;;;;;13.20;98599.00;;;;5070309;28;20049;-64
2023/08/08 03:59:50;;;;;;;3.38;2.53;;;;;13.10;98595.00;;;;5070452;28;20041;-63
2023/08/08 04:02:16;;;;;;;6.03;2.55;;;;;13.10;98591.00;;;;5071510;28;20132;-63
2023/08/08 04:04:43;;;;;;;4.95;2.63;;;;;13.10;98602.00;;;;5071002;28;20048;-65
2023/08/08 04:07:10;;;;;;;4.38;2.88;;;;;13.10;98596.00;;;;5088659;28;20497;-64
2023/08/08 04:09:36;;;;;;;4.93;2.60;;;;;13.10;98597.00;;;;5071702;28;20075;-63
2023/08/08 04:12:03;;;;;;;5.35;2.63;;;;;13.10;98602.00;;;;5088801;28;20547;-63
2023/08/08 04:14:30;;;;;;;2.80;2.30;;;;;13.10;98607.00;;;;5088238;28;20071;-63
2023/08/08 04:16:56;;;;;;;5.47;2.25;;;;;13.10;98611.00;;;;5054813;28;20094;-63
2023/08/08 04:19:23;;;;;;;5.80;2.25;;;;;13.10;98614.00;;;;5089784;28;20582;-63
2023/08/08 04:21:49;;;;;;;3.05;2.35;;;;;13.10;98604.00;;;;5095314;28;20049;-63
2023/08/08 04:24:16;;;;;;;4.95;2.63;;;;;13.10;98604.00;;;;5090525;28;20048;-63
2023/08/08 04:26:43;;;;;;;6.18;3.17;;;;;13.20;98605.00;;;;5087283;28;20048;-63
2023/08/08 04:29:09;;;;;;;3.53;3.17;;;;;13.20;98614.00;;;;5085674;28;20036;-62
2023/08/08 04:31:36;;;;;;;4.10;2.90;;;;;13.20;98608.00;;;;5085363;28;20041;-63
2023/08/08 04:34:02;;;;;;;5.22;2.38;;;;;13.20;98607.00;;;;5067935;28;20120;-63
2023/08/08 04:36:29;;;;;;;5.10;2.45;;;;;13.10;98609.00;;;;5065471;28;20130;-63
2023/08/08 04:38:56;;;;;;;5.22;2.78;;;;;13.20;98608.00;;;;5065376;28;20040;-62
2023/08/08 04:41:23;;;;;;;5.78;2.38;;;;;13.20;98611.00;;;;5063236;28;20056;-63
2023/08/08 04:43:49;;;;;;;3.83;2.70;;;;;13.20;98601.00;;;;5085061;28;20071;-62
2023/08/08 04:46:16;;;;;;;3.42;2.47;;;;;13.20;98606.00;;;;5084456;28;20048;-63
2023/08/08 04:48:42;;;;;;;5.88;2.95;;;;;13.20;98594.00;;;;5083550;28;20461;-63
2023/08/08 04:51:09;;;;;;;4.18;3.10;;;;;13.20;98601.00;;;;5065905;28;20044;-64
2023/08/08 04:53:36;;;;;;;5.50;2.63;;;;;13.20;98603.00;;;;5050170;28;20066;-63
2023/08/08 04:56:03;;;;;;;5.85;2.95;;;;;13.30;98605.00;;;;5077187;28;20523;-63
2023/08/08 04:58:30;;;;;;;3.30;2.50;;;;;13.30;98608.00;;;;5062479;28;20052;-63
2023/08/08 05:00:56;;;;;;;7.20;2.83;;;;;13.40;98604.00;;;;5080089;28;20051;-63
2023/08/08 05:03:23;;;;;;;4.95;2.88;;;;;13.50;98600.00;;;;5082290;28;20075;-63
2023/08/08 05:05:50;;;;;;;5.53;2.85;;;;;13.50;98607.00;;;;5064386;28;20094;-64
2023/08/08 05:08:16;;;;;;;5.40;2.70;;;;;13.50;98608.00;;;;5084461;28;20049;-64
2023/08/08 05:10:43;;;;;;;5.75;3.17;;;;;13.50;98606.00;;;;5082293;28;20048;-64
2023/08/08 05:13:10;;;;;;;5.15;2.72;;;;;13.60;98607.00;;;;5081396;28;20045;-64
2023/08/08 05:15:37;;;;;;;7.05;2.90;;;;;13.70;98616.00;;;;5082863;28;20079;-63
2023/08/08 05:18:04;;;;;;;6.47;3.00;;;;;13.70;98609.00;;;;5082686;28;20063;-63
2023/08/08 05:20:30;;;;;;;4.10;3.05;;;;;13.80;98614.00;;;;5081668;28;20083;-63
2023/08/08 05:22:57;;;;;;;4.57;2.72;;;;;13.80;98607.00;;;;5065005;28;20060;-64
2023/08/08 05:25:24;;;;;;;5.72;3.30;;;;;13.90;98606.00;;;;5083316;28;20049;-63
2023/08/08 05:27:50;;;;;;;6.15;2.60;;;;;13.90;98601.00;;;;5082997;28;20527;-63
2023/08/08 05:30:17;;;;;;;6.43;2.70;;;;;14.00;98606.00;;;;5082972;28;20131;-63
2023/08/08 05:32:43;;;;;;;5.78;3.05;;;;;14.10;98607.00;;;;5082885;28;20048;-63
2023/08/08 05:35:10;;;;;;;7.32;3.17;;;;;14.10;98597.00;;;;5081956;28;20064;-63
2023/08/08 05:37:37;;;;;;;5.05;2.83;;;;;14.20;98611.00;;;;5082237;28;20072;-63
2023/08/08 05:40:06;;;;;;;18.40;3.60;;;;;14.20;98604.00;;;;5082462;28;20116;-63
2023/08/08 05:42:32;;;;;;;5.15;2.58;;;;;14.30;98599.00;;;;5081128;28;20052;-63
2023/08/08 05:44:59;;;;;;;3.95;3.10;;;;;14.30;98602.00;;;;5062545;28;20086;-65
2023/08/08 05:47:26;;;;;;;3.63;2.75;;;;;14.20;98605.00;;;;5080232;28;20040;-64
2023/08/08 05:49:53;;;;;;;5.28;2.88;;;;;14.30;98609.00;;;;5078691;28;20045;-64
2023/08/08 05:52:21;;;;;;;4.85;2.80;;;;;14.30;98609.00;;;;5059799;28;20053;-63
2023/08/08 05:54:48;;;;;;;5.55;2.75;;;;;14.40;98607.00;;;;5077669;28;20040;-63
2023/08/08 05:57:14;;;;;;;4.07;2.75;;;;;14.40;98607.00;;;;5078858;28;20090;-62
2023/08/08 05:59:41;;;;;;;9.48;3.08;;;;;14.50;98610.00;;;;5062366;28;20451;-63
2023/08/08 06:02:08;;;;;;;5.13;3.60;;;;;14.50;98604.00;;;;5080668;28;20122;-63
2023/08/08 06:04:34;;;;;;;5.85;2.55;;;;;14.70;98604.00;;;;5080586;28;20109;-63
2023/08/08 06:07:01;;;;;;;7.70;2.78;;;;;14.80;98606.00;;;;5062904;28;20045;-63
2023/08/08 06:09:28;;;;;;;4.90;2.63;;;;;14.90;98608.00;;;;5080107;28;20729;-63
2023/08/08 06:11:54;;;;;;;4.72;2.97;;;;;14.90;98604.00;;;;5062719;28;20044;-63
2023/08/08 06:14:21;;;;;;;9.43;3.05;;;;;15.00;98604.00;;;;5062070;28;20408;-64
2023/08/08 06:16:48;;;;;;;5.85;2.92;;;;;15.10;98609.00;;;;5078694;28;20076;-64
2023/08/08 06:19:15;;;;;;;4.93;2.90;;;;;15.20;98605.00;;;;5079094;28;20048;-64
2023/08/08 06:21:42;;;;;;;6.53;2.25;;;;;15.30;98606.00;;;;5079157;28;20045;-64
2023/08/08 06:24:08;;;;;;;6.05;2.33;;;;;15.40;98611.00;;;;5078859;28;20040;-64
2023/08/08 06:26:35;;;;;;;4.40;2.00;;;;;15.50;98611.00;;;;5078604;28;20136;-63
2023/08/08 06:29:02;;;;;;;3.97;2.05;;;;;15.60;98599.00;;;;5060874;28;20052;-63
2023/08/08 06:31:30;;;;;;;5.72;2.20;;;;;15.80;98614.00;;;;5079358;28;20131;-64
2023/08/08 06:33:56;;;;;;;4.90;1.88;;;;;15.90;98611.00;;;;5061203;28;20044;-63
2023/08/08 06:36:23;;;;;;;2.72;2.20;;;;;16.00;98610.00;;;;5078690;28;20055;-63
2023/08/08 06:38:49;;;;;;;3.95;1.80;;;;;16.10;98609.00;;;;5060976;28;20139;-65
2023/08/08 06:41:16;;;;;;;6.22;2.25;;;;;16.20;98604.00;;;;5078428;28;20044;-64
2023/08/08 06:43:43;;;;;;;2.15;1.45;;;;;16.30;98601.00;;;;5078357;28;20047;-64
2023/08/08 06:46:09;;;;;;;3.80;1.88;;;;;16.40;98602.00;;;;5060069;28;20052;-64
2023/08/08 06:48:36;;;;;;;6.00;2.13;;;;;16.50;98600.00;;;;5061267;28;20045;-64
2023/08/08 06:51:02;;;;;;;3.35;1.75;;;;;16.60;98604.00;;;;5078620;28;20482;-64
2023/08/08 06:53:29;;;;;;;4.57;1.90;;;;;16.60;98604.00;;;;5078587;28;20072;-65
2023/08/08 06:55:55;;;;;;;4.72;2.28;;;;;16.70;98593.00;;;;5060727;28;20045;-65
2023/08/08 06:58:23;;;;;;;2.63;1.50;;;;;16.70;98599.00;;;;5078860;28;20051;-64
2023/08/08 07:00:50;;;;;;;4.50;1.67;;;;;16.70;98614.00;;;;5078091;28;20386;-64
2023/08/08 07:03:17;;;;;;;3.85;1.88;;;;;16.70;98609.00;;;;5060508;28;20272;-65
2023/08/08 07:05:44;;;;;;;2.72;1.30;;;;;16.80;98602.00;;;;5059332;28;20110;-65
2023/08/08 07:08:10;;;;;;;2.95;1.23;;;;;16.80;98601.00;;;;5058926;28;20079;-65
2023/08/08 07:10:37;;;;;;;3.17;1.55;;;;;17.00;98606.00;;;;5077327;28;20045;-64
2023/08/08 07:13:04;;;;;;;2.50;1.50;;;;;17.10;98603.00;;;;5059874;28;20072;-64
2023/08/08 07:15:31;;;;;;;3.42;1.75;;;;;17.20;98596.00;;;;5060063;28;20064;-63
2023/08/08 07:17:57;;;;;;;3.13;1.67;;;;;17.40;98603.00;;;;5077492;28;20075;-64
2023/08/08 07:20:24;;;;;;;3.58;1.55;;;;;17.50;98603.00;;;;5043188;28;20056;-64
2023/08/08 07:22:50;;;;;;;2.15;1.38;;;;;17.70;98591.00;;;;5077429;28;20078;-64
2023/08/08 07:25:17;;;;;;;4.65;1.88;;;;;17.80;98607.00;;;;5077123;28;20044;-64
2023/08/08 07:27:44;;;;;;;1.75;1.27;;;;;17.80;98598.00;;;;5058928;28;20152;-63
2023/08/08 07:30:11;;;;;;;4.68;1.48;;;;;17.80;98603.00;;;;5077217;28;20049;-63
2023/08/08 07:32:38;;;;;;;3.10;1.75;;;;;17.80;98608.00;;;;5059357;28;20049;-63
2023/08/08 07:35:08;;;;;;;6.43;1.50;;;;;17.90;98606.00;;;;5077213;28;20048;-64
2023/08/08 07:37:35;;;;;;;3.53;1.30;;;;;18.00;98605.00;;;;5077370;28;20048;-64
2023/08/08 07:40:03;;;;;;;2.47;1.40;;;;;18.10;98606.00;;;;5076142;28;20036;-63
2023/08/08 07:42:30;;;;;;;2.53;1.25;;;;;18.20;98602.00;;;;5076456;28;20044;-63
2023/08/08 07:44:57;;;;;;;5.40;1.63;;;;;18.30;98609.00;;;;5074999;28;20071;-63
2023/08/08 07:47:23;;;;;;;3.47;1.45;;;;;18.40;98609.00;;;;5074882;28;20041;-64
2023/08/08 07:49:50;;;;;;;3.40;1.50;;;;;18.50;98605.00;;;;5074761;28;20041;-63
2023/08/08 07:52:17;;;;;;;1.75;1.17;;;;;18.50;98605.00;;;;5057622;28;20051;-63
2023/08/08 07:54:43;;;;;;;3.13;1.40;;;;;18.60;98607.00;;;;5077039;28;20044;-63
2023/08/08 07:57:10;;;;;;;2.85;1.20;;;;;18.70;98614.00;;;;5062006;28;20123;-63
2023/08/08 07:59:37;;;;;;;3.20;1.50;;;;;18.80;98602.00;;;;5061847;28;20148;-64
2023/08/08 08:02:04;;;;;;;3.47;1.20;;;;;18.80;98612.00;;;;5079844;28;20051;-63
2023/08/08 08:04:32;;;;;;;4.78;1.40;;;;;18.80;98609.00;;;;5078380;28;20387;-63
2023/08/08 08:06:58;;;;;;;2.25;1.30;;;;;18.80;98614.00;;;;5079146;28;20044;-63
2023/08/08 08:09:25;;;;;;;2.33;1.27;;;;;18.80;98612.00;;;;5078628;28;20048;-64
2023/08/08 08:11:51;;;;;;;1.58;1.10;;;;;18.80;98610.00;;;;5077648;28;20127;-64
2023/08/08 08:14:18;;;;;;;2.28;1.17;;;;;18.90;98615.00;;;;5078408;28;20466;-64
2023/08/08 08:16:45;;;;;;;3.95;1.30;;;;;18.90;98607.00;;;;5078495;28;20108;-64
2023/08/08 08:19:12;;;;;;;4.50;1.38;;;;;19.00;98610.00;;;;5077513;28;20404;-64
2023/08/08 08:21:38;;;;;;;2.63;1.30;;;;;19.10;98601.00;;;;5078590;28;20070;-63
2023/08/08 08:24:05;;;;;;;3.88;1.35;;;;;19.20;98602.00;;;;5077823;28;20178;-64
2023/08/08 08:26:32;;;;;;;3.40;1.25;;;;;19.20;98610.00;;;;5060660;28;20052;-65
2023/08/08 08:28:59;;;;;;;2.20;1.10;;;;;19.30;98609.00;;;;5080033;28;20040;-65
2023/08/08 08:31:25;;;;;;;3.65;1.30;;;;;19.40;98605.00;;;;5079547;28;20131;-65
2023/08/08 08:33:55;;;;;;;4.07;1.55;;;;;19.50;98601.00;;;;5078399;28;20044;-65
2023/08/08 08:36:21;;;;;;;3.67;1.30;;;;;19.50;98596.00;;;;5077891;28;20044;-64
2023/08/08 08:38:48;;;;;;;4.30;1.40;;;;;19.60;98596.00;;;;5077781;28;20059;-65
2023/08/08 08:41:18;;;;;;;2.40;1.30;;;;;19.70;98610.00;;;;5077411;28;20055;-65
2023/08/08 08:43:45;;;;;;;4.97;1.58;;;;;19.80;98597.00;;;;5077098;28;20045;-64
2023/08/08 08:46:18;;;;;;;4.75;1.50;;;;;19.90;98592.00;;;;5058758;28;20119;-64
2023/08/08 08:48:45;;;;;;;3.22;1.60;;;;;20.00;98588.00;;;;5076781;28;20497;-65
2023/08/08 08:51:12;;;;;;;5.00;1.60;;;;;20.20;98584.00;;;;5076658;28;20041;-65
2023/08/08 08:53:46;;;;;;;4.88;1.60;;;;;20.10;98592.00;;;;5076553;28;20040;-64
2023/08/08 08:56:14;;;;;;;3.67;1.70;;;;;20.10;98589.00;;;;5077057;28;20082;-64
2023/08/08 08:58:41;;;;;;;3.25;1.40;;;;;20.10;98596.00;;;;5076926;28;20064;-64
2023/08/08 09:01:08;;;;;;;3.88;1.63;;;;;20.10;98598.00;;;;5076578;28;20049;-64
2023/08/08 09:03:36;;;;;;;3.08;1.40;;;;;20.10;98582.00;;;;5059446;28;20052;-64
2023/08/08 09:06:04;;;;;;;1.92;1.10;;;;;20.20;98599.00;;;;5058301;28;20044;-65
2023/08/08 09:08:31;;;;;;;2.92;1.50;;;;;20.30;98588.00;;;;5076271;28;20124;-64
2023/08/08 09:10:58;;;;;;;3.30;1.27;;;;;20.40;98575.00;;;;5075870;28;20469;-63
2023/08/08 09:13:27;;;;;;;1.75;1.30;;;;;20.50;98588.00;;;;5058255;28;20087;-63
2023/08/08 09:15:55;;;;;;;1.40;1.10;;;;;20.60;98592.00;;;;5059006;28;20140;-63
2023/08/08 09:18:23;;;;;;;2.30;1.20;;;;;20.60;98584.00;;;;5076229;28;20409;-64
2023/08/08 09:20:50;;;;;;;2.95;1.30;;;;;20.80;98592.00;;;;5058871;28;20040;-63
2023/08/08 09:23:17;;;;;;;3.85;1.45;;;;;20.90;98593.00;;;;5076887;28;20456;-63
2023/08/08 09:25:44;;;;;;;4.10;1.58;;;;;20.90;98581.00;;;;5077102;28;20045;-64
2023/08/08 09:28:11;;;;;;;2.60;1.17;;;;;20.90;98580.00;;;;5059277;28;20047;-64
2023/08/08 09:30:37;;;;;;;2.35;1.27;;;;;21.00;98579.00;;;;5076706;28;20074;-63
2023/08/08 09:33:04;;;;;;;1.95;1.23;;;;;21.10;98587.00;;;;5076350;28;20044;-64
2023/08/08 09:35:31;;;;;;;2.25;1.42;;;;;21.10;98580.00;;;;5077202;28;20050;-63
2023/08/08 09:37:57;;;;;;;2.78;1.08;;;;;21.10;98578.00;;;;5076451;28;20206;-63
2023/08/08 09:40:24;;;;;;;3.05;1.17;;;;;21.20;98581.00;;;;5059233;28;20135;-64
2023/08/08 09:42:53;;;;;;;4.22;1.20;;;;;21.20;98579.00;;;;5076824;28;20106;-63
2023/08/08 09:45:20;;;;;;;4.10;1.40;;;;;21.20;98579.00;;;;5076384;28;20123;-63
2023/08/08 09:47:49;;;;;;;3.33;1.40;;;;;21.30;98575.00;;;;5058736;28;20456;-63
2023/08/08 09:50:18;;;;;;;2.95;1.08;;;;;21.30;98577.00;;;;5075590;28;20059;-63
2023/08/08 09:52:46;;;;;;;1.88;1.50;;;;;21.50;98583.00;;;;5057933;28;20127;-64
2023/08/08 09:55:14;;;;;;;3.60;1.40;;;;;21.40;98579.00;;;;5075865;28;20044;-64
2023/08/08 09:57:42;;;;;;;3.70;1.73;;;;;21.30;98577.00;;;;5057724;28;20036;-63
2023/08/08 10:00:15;;;;;;;2.90;1.50;;;;;21.40;98566.00;;;;5057400;28;20135;-63
2023/08/08 10:02:45;;;;;;;4.70;1.90;;;;;21.40;98575.00;;;;5057927;28;20101;-63
2023/08/08 10:05:13;;;;;;;2.47;1.45;;;;;21.40;98580.00;;;;5076282;28;20045;-63
2023/08/08 10:07:41;;;;;;;1.98;1.10;;;;;21.40;98585.00;;;;5075850;28;20123;-63
2023/08/08 10:10:09;;;;;;;3.85;1.08;;;;;21.40;98588.00;;;;5058021;28;20048;-64
2023/08/08 10:12:40;;;;;;;2.08;1.38;;;;;21.40;98581.00;;;;5042149;28;20044;-63
2023/08/08 10:15:08;;;;;;;2.97;1.13;;;;;21.30;98582.00;;;;5076929;28;20048;-63
2023/08/08 10:17:37;;;;;;;2.15;1.42;;;;;21.40;98577.00;;;;5075565;28;20055;-63
2023/08/08 10:20:11;;;;;;;3.80;1.17;;;;;21.40;98578.00;;;;5075850;28;20401;-64
2023/08/08 10:22:43;;;;;;;1.33;1.23;;;;;21.50;98569.00;;;;5074812;28;20049;-64
2023/08/08 10:25:17;;;;;;;2.33;1.45;;;;;21.50;98573.00;;;;5074226;28;20519;-64
2023/08/08 10:27:44;;;;;;;3.20;1.30;;;;;21.50;98576.00;;;;5073890;28;20051;-63
2023/08/08 10:30:13;;;;;;;1.67;1.20;;;;;21.50;98576.00;;;;5055583;28;20135;-64
2023/08/08 10:32:44;;;;;;;2.60;1.35;;;;;21.70;98567.00;;;;5073518;28;20048;-64
2023/08/08 10:35:12;;;;;;;5.28;1.67;;;;;21.90;98573.00;;;;5073656;28;20055;-64
2023/08/08 10:37:39;;;;;;;2.80;1.50;;;;;21.90;98571.00;;;;5073374;28;20076;-64
2023/08/08 10:40:07;;;;;;;2.30;1.35;;;;;22.10;98570.00;;;;5074090;28;20044;-64
2023/08/08 10:42:45;;;;;;;2.67;1.20;;;;;22.30;98562.00;;;;5055873;28;20048;-61
2023/08/08 10:45:14;;;;;;;2.42;1.00;;;;;22.30;98567.00;;;;5073753;28;20076;-61
2023/08/08 10:47:42;;;;;;;2.90;1.10;;;;;22.50;98564.00;;;;5073650;28;20055;-63
2023/08/08 10:50:14;;;;;;;2.63;1.58;;;;;22.60;98574.00;;;;5073847;28;20045;-63
2023/08/08 10:52:52;;;;;;;2.30;1.52;;;;;22.60;98568.00;;;;5073453;28;20050;-63
2023/08/08 10:55:22;;;;;;;5.05;1.27;;;;;22.80;98573.00;;;;5074005;28;20049;-63
2023/08/08 10:58:07;;;;;;;1.70;1.10;;;;;23.00;98565.00;;;;5073549;28;20040;-63
2023/08/08 11:00:36;;;;;;;2.22;1.10;;;;;23.10;98555.00;;;;5055557;28;20040;-62
2023/08/08 11:03:06;;;;;;;1.83;1.15;;;;;23.20;98564.00;;;;5073408;28;20051;-63
2023/08/08 11:05:34;;;;;;;2.25;1.50;;;;;23.30;98563.00;;;;5073661;28;20527;-63
2023/08/08 11:08:02;;;;;;;2.00;1.20;;;;;23.50;98559.00;;;;5055626;28;20052;-62
2023/08/08 11:10:31;;;;;;;2.03;1.15;;;;;23.90;98569.00;;;;5072926;28;20044;-63
2023/08/08 11:13:00;;;;;;;3.35;1.20;;;;;24.10;98576.00;;;;5072675;28;20127;-63
2023/08/08 11:15:27;;;;;;;3.20;1.20;;;;;24.00;98562.00;;;;5054845;28;20135;-63
2023/08/08 11:17:57;;;;;;;1.33;0.80;;;;;23.90;98572.00;;;;5072526;28;20044;-63
2023/08/08 11:20:24;;;;;;;1.10;0.80;;;;;23.90;98569.00;;;;5054757;28;20048;-62
2023/08/08 11:22:53;;;;;;;2.33;1.15;;;;;23.90;98564.00;;;;5072917;28;20119;-63
2023/08/08 11:25:21;;;;;;;2.20;1.10;;;;;23.90;98575.00;;;;5072609;28;20048;-62
2023/08/08 11:27:54;;;;;;;4.18;1.20;;;;;24.00;98572.00;;;;5054753;28;20044;-63
2023/08/08 11:30:22;;;;;;;2.15;1.00;;;;;24.00;98570.00;;;;5055124;28;20068;-62
2023/08/08 11:32:50;;;;;;;3.75;1.10;;;;;24.10;98581.00;;;;5072682;28;20098;-62
2023/08/08 11:35:24;;;;;;;4.05;1.10;;;;;24.20;98567.00;;;;5055085;28;20135;-63
2023/08/08 11:37:53;;;;;;;1.70;1.00;;;;;24.20;98570.00;;;;5072526;28;20438;-62
2023/08/08 11:40:20;;;;;;;4.30;1.15;;;;;24.30;98574.00;;;;5072238;28;20047;-63
2023/08/08 11:42:49;;;;;;;2.00;0.95;;;;;24.20;98575.00;;;;5072341;28;20111;-63
2023/08/08 11:45:16;;;;;;;1.95;1.25;;;;;24.00;98570.00;;;;5054690;28;20076;-62
2023/08/08 11:47:42;;;;;;;1.40;1.00;;;;;24.00;98573.00;;;;5054568;28;20114;-62
2023/08/08 11:50:10;;;;;;;2.85;1.15;;;;;24.10;98559.00;;;;5072022;28;20059;-62
2023/08/08 11:52:42;;;;;;;4.90;1.40;;;;;24.10;98561.00;;;;5072737;28;20463;-63
2023/08/08 11:55:09;;;;;;;4.30;1.33;;;;;24.10;98562.00;;;;5072348;28;20455;-64
2023/08/08 11:57:37;;;;;;;3.03;1.58;;;;;24.10;98557.00;;;;5072356;28;20127;-64
2023/08/08 12:00:07;;;;;;;2.50;1.50;;;;;24.20;98560.00;;;;5071709;28;20408;-61
2023/08/08 12:02:39;;;;;;;4.72;1.67;;;;;24.10;98549.00;;;;5072345;28;20080;-64
2023/08/08 12:05:16;;;;;;;2.90;1.35;;;;;24.10;98545.00;;;;5071923;28;20074;-64
2023/08/08 12:07:45;;;;;;;3.13;1.35;;;;;24.10;98549.00;;;;5072212;28;20406;-64
2023/08/08 12:10:17;;;;;;;1.95;0.90;;;;;24.20;98563.00;;;;5071985;28;20044;-64
2023/08/08 12:12:45;;;;;;;2.92;1.00;;;;;24.20;98556.00;;;;5072129;28;20044;-62
2023/08/08 12:15:13;;;;;;;2.25;1.33;;;;;24.20;98549.00;;;;5071892;28;20083;-63
2023/08/08 12:17:46;;;;;;;1.83;1.02;;;;;24.20;98566.00;;;;5072004;28;20049;-63
2023/08/08 12:20:14;;;;;;;2.45;1.20;;;;;24.10;98559.00;;;;5054021;28;20101;-63